Time;durP1;ratioP1;P1;durP2;ratioP2;P2;SDS_P1;SDS_P2;PMS_P1;PMS_P2;Temp;Humidity;BMP_temperature;BMP_pressure;BME280_temperature;BME280_humidity;BME280_pressure;Samples;Min_cycle;Max_cycle;Signal;HPM_P1;HPM_P2
2024/02/13 00:01:48;;;;;;;4.55;3.63;;;;;;;4.82;100.00;98267.16;15298182;19;20021;-78
2024/02/13 00:07:13;;;;;;;4.53;3.40;;;;;;;4.75;100.00;98272.16;15294720;19;20010;-78
2024/02/13 00:12:41;;;;;;;5.45;3.03;;;;;;;4.69;100.00;98275.34;15308867;19;20346;-79
2024/02/13 00:18:07;;;;;;;4.57;2.70;;;;;;;4.67;100.00;98273.75;15326200;19;20006;-78
2024/02/13 00:23:36;;;;;;;5.18;3.00;;;;;;;4.63;100.00;98260.69;15343050;19;20013;-78
2024/02/13 00:29:03;;;;;;;4.95;2.83;;;;;;;4.62;100.00;98268.81;15292371;19;20020;-78
2024/02/13 00:34:28;;;;;;;3.30;2.50;;;;;;;4.55;100.00;98257.81;15315733;19;20059;-81
2024/02/13 00:39:54;;;;;;;4.40;2.40;;;;;;;4.46;100.00;98275.44;15305196;19;20083;-81
2024/02/13 00:45:21;;;;;;;3.05;2.55;;;;;;;4.38;100.00;98263.69;15318011;19;20481;-81
2024/02/13 00:50:48;;;;;;;3.35;2.53;;;;;;;4.25;100.00;98267.38;15307390;19;20022;-80
2024/02/13 00:56:13;;;;;;;4.88;2.85;;;;;;;4.13;100.00;98266.53;15322760;19;20058;-80
2024/02/13 01:01:40;;;;;;;4.40;3.00;;;;;;;4.06;100.00;98269.84;15324936;19;20018;-80
2024/02/13 01:07:05;;;;;;;4.63;2.80;;;;;;;3.98;100.00;98281.94;15318861;19;20017;-78
2024/02/13 01:12:30;;;;;;;7.05;2.80;;;;;;;4.04;100.00;98301.94;15312329;19;20021;-80
2024/02/13 01:17:58;;;;;;;4.18;2.45;;;;;;;4.06;100.00;98309.81;15307822;19;20386;-78
2024/02/13 01:23:24;;;;;;;4.28;2.65;;;;;;;4.01;100.00;98316.38;15324435;19;20006;-81
2024/02/13 01:28:48;;;;;;;6.18;3.10;;;;;;;4.04;100.00;98336.59;15315700;19;20808;-80
2024/02/13 01:34:16;;;;;;;4.25;2.85;;;;;;;4.07;100.00;98338.16;15332310;19;20018;-80
2024/02/13 01:39:40;;;;;;;4.82;2.65;;;;;;;4.04;100.00;98351.75;15321074;19;20024;-80
2024/02/13 01:45:09;;;;;;;6.38;3.00;;;;;;;3.96;100.00;98347.84;15322945;19;20044;-78
2024/02/13 01:50:38;;;;;;;6.97;2.90;;;;;;;4.05;100.00;98364.94;15308109;19;20035;-78
2024/02/13 01:56:05;;;;;;;4.57;2.50;;;;;;;4.05;100.00;98366.78;15312941;19;20006;-79
2024/02/13 02:01:29;;;;;;;5.68;2.63;;;;;;;3.98;100.00;98361.06;15306280;19;20014;-76
2024/02/13 02:06:57;;;;;;;4.47;2.33;;;;;;;3.88;100.00;98358.28;15308524;19;20035;-78
2024/02/13 02:12:22;;;;;;;4.28;2.47;;;;;;;3.79;100.00;98369.66;15318030;19;20026;-80
2024/02/13 02:17:53;;;;;;;4.80;2.40;;;;;;;3.78;100.00;98368.81;15309579;19;20743;-81
2024/02/13 02:23:22;;;;;;;3.23;2.40;;;;;;;3.88;100.00;98378.75;15306384;19;20658;-80
2024/02/13 02:28:49;;;;;;;3.80;2.30;;;;;;;3.99;100.00;98394.75;15318304;19;20282;-81
2024/02/13 02:34:18;;;;;;;3.35;2.00;;;;;;;3.96;100.00;98395.84;15315811;19;20369;-80
2024/02/13 02:39:44;;;;;;;3.33;2.00;;;;;;;3.93;100.00;98400.56;15297746;19;20077;-79
2024/02/13 02:45:11;;;;;;;3.65;1.98;;;;;;;3.93;100.00;98403.22;15314362;19;20018;-80
2024/02/13 02:50:36;;;;;;;3.78;1.90;;;;;;;3.89;100.00;98402.63;15303426;19;20022;-80
2024/02/13 02:56:01;;;;;;;2.90;1.83;;;;;;;3.87;100.00;98407.22;15315442;19;20014;-79
2024/02/13 03:01:29;;;;;;;4.30;2.00;;;;;;;3.83;100.00;98416.41;15323675;19;20014;-75
2024/02/13 03:06:54;;;;;;;4.38;1.70;;;;;;;3.85;100.00;98411.81;15328314;19;20018;-80
2024/02/13 03:12:28;;;;;;;2.92;1.60;;;;;;;3.90;100.00;98428.31;15328222;19;20098;-81
2024/02/13 03:17:57;;;;;;;4.25;1.83;;;;;;;3.95;100.00;98436.78;15373369;19;20003;-79
2024/02/13 03:23:23;;;;;;;4.57;2.10;;;;;;;3.91;100.00;98435.34;15308094;19;20011;-79
2024/02/13 03:28:47;;;;;;;4.30;2.00;;;;;;;3.90;100.00;98449.63;15312866;19;20010;-79
2024/02/13 03:34:14;;;;;;;4.32;1.77;;;;;;;3.83;100.00;98451.91;15322035;19;20021;-77
2024/02/13 03:39:42;;;;;;;4.07;1.70;;;;;;;3.76;100.00;98460.50;15329692;19;20031;-78
2024/02/13 03:45:09;;;;;;;4.03;1.80;;;;;;;3.66;100.00;98463.88;15332530;19;20022;-78
2024/02/13 03:50:37;;;;;;;4.47;1.80;;;;;;;3.55;100.00;98471.81;15318757;19;20035;-78
2024/02/13 03:56:04;;;;;;;4.40;2.33;;;;;;;3.51;100.00;98481.00;15324704;19;20010;-77
2024/02/13 04:01:28;;;;;;;4.50;2.28;;;;;;;3.32;100.00;98485.03;15067608;19;5000861;-80
2024/02/13 04:06:56;;;;;;;5.07;2.25;;;;;;;3.04;100.00;98484.41;15313871;19;20022;-80
2024/02/13 04:12:20;;;;;;;5.15;2.70;;;;;;;2.86;100.00;98485.75;15307942;19;20039;-79
2024/02/13 04:17:46;;;;;;;4.97;3.30;;;;;;;2.72;100.00;98503.56;15293688;19;20023;-79
2024/02/13 04:23:13;;;;;;;5.22;3.13;;;;;;;2.62;100.00;98510.50;15295061;19;20376;-79
2024/02/13 04:28:39;;;;;;;4.80;3.10;;;;;;;2.47;100.00;98515.94;15299011;19;20018;-78
2024/02/13 04:34:11;;;;;;;7.70;3.70;;;;;;;2.36;100.00;98529.13;15296138;19;20010;-80
2024/02/13 04:39:39;;;;;;;5.65;3.85;;;;;;;2.32;100.00;98530.28;15291900;19;20022;-79
2024/02/13 04:45:05;;;;;;;6.80;3.85;;;;;;;2.26;100.00;98536.88;15293472;19;20025;-79
2024/02/13 04:50:30;;;;;;;5.68;3.58;;;;;;;2.20;100.00;98539.09;15289357;19;20737;-78
2024/02/13 04:55:58;;;;;;;6.75;4.07;;;;;;;2.12;100.00;98545.81;15294668;19;20031;-78
2024/02/13 05:01:23;;;;;;;6.32;3.80;;;;;;;2.07;100.00;98547.91;15294950;19;20723;-81
2024/02/13 05:12:29;;;;;;;7.75;4.07;;;;;;;1.96;100.00;98555.75;15298747;19;20732;-79
2024/02/13 05:17:53;;;;;;;6.32;4.18;;;;;;;1.91;100.00;98552.56;15288882;19;20086;-80
2024/02/13 05:23:18;;;;;;;7.88;4.63;;;;;;;1.85;100.00;98560.00;15294708;19;20104;-81
2024/02/13 05:28:49;;;;;;;6.78;4.85;;;;;;;1.82;100.00;98567.31;15292091;19;20379;-81
2024/02/13 05:34:21;;;;;;;7.10;4.38;;;;;;;1.68;100.00;98569.09;15291574;19;20413;-82
2024/02/13 05:39:50;;;;;;;5.90;4.28;;;;;;;1.58;100.00;98575.97;15293202;19;20035;-79
2024/02/13 05:45:20;;;;;;;7.07;4.50;;;;;;;1.52;100.00;98589.66;15298146;19;20021;-79
2024/02/13 05:50:45;;;;;;;5.63;4.35;;;;;;;1.51;100.00;98598.56;15286726;19;20007;-77
2024/02/13 05:56:09;;;;;;;6.93;4.20;;;;;;;1.49;100.00;98605.78;15289127;19;20014;-77
2024/02/13 06:01:49;;;;;;;7.75;4.55;;;;;;;1.47;100.00;98619.13;15287294;19;20337;-77
2024/02/13 06:07:13;;;;;;;5.80;4.25;;;;;;;1.44;100.00;98624.66;15290121;19;20078;-78
2024/02/13 06:18:16;;;;;;;9.85;4.15;;;;;;;1.40;100.00;98643.53;15334399;19;20030;-80
2024/02/13 06:23:43;;;;;;;6.55;4.90;;;;;;;1.40;100.00;98651.50;15287418;19;20062;-81
2024/02/13 06:29:15;;;;;;;9.43;5.10;;;;;;;1.41;100.00;98654.06;15284807;19;20359;-82
2024/02/13 06:34:43;;;;;;;6.85;4.75;;;;;;;1.50;100.00;98672.03;15287559;19;20353;-79
2024/02/13 06:40:08;;;;;;;6.32;4.50;;;;;;;1.56;100.00;98673.47;15285059;19;20458;-77
2024/02/13 06:45:34;;;;;;;6.78;4.00;;;;;;;1.65;100.00;98682.66;15291677;19;20635;-77
2024/02/13 06:51:02;;;;;;;7.18;4.03;;;;;;;1.75;100.00;98698.84;15288364;19;20078;-79
2024/02/13 06:56:28;;;;;;;9.00;3.80;;;;;;;1.81;100.00;98701.09;15285385;19;20011;-81
2024/02/13 07:01:52;;;;;;;6.55;3.58;;;;;;;1.88;100.00;98720.16;15282626;19;20007;-80
2024/02/13 07:07:20;;;;;;;4.40;3.55;;;;;;;1.92;100.00;98713.69;15283003;19;20014;-79
2024/02/13 07:12:52;;;;;;;8.20;3.60;;;;;;;1.91;100.00;98714.66;15291069;19;20021;-79
2024/02/13 07:18:16;;;;;;;6.68;4.00;;;;;;;1.89;100.00;98721.88;15282019;19;20014;-77
2024/02/13 07:23:43;;;;;;;6.28;3.65;;;;;;;1.89;100.00;98727.19;15283160;19;20014;-78
2024/02/13 07:29:09;;;;;;;5.05;3.35;;;;;;;1.87;100.00;98731.72;15277655;19;20011;-81
2024/02/13 07:34:37;;;;;;;4.72;3.65;;;;;;;1.88;100.00;98729.00;15284972;19;20026;-79
2024/02/13 07:40:05;;;;;;;5.63;3.20;;;;;;;1.90;100.00;98731.53;15282285;19;20010;-80
2024/02/13 07:45:31;;;;;;;3.92;2.95;;;;;;;1.96;100.00;98741.75;15293144;19;20765;-78
2024/02/13 07:50:57;;;;;;;6.32;3.60;;;;;;;1.97;100.00;98741.69;15297489;19;20013;-79
2024/02/13 07:56:28;;;;;;;7.13;3.45;;;;;;;2.00;100.00;98749.44;15302015;19;20011;-81
2024/02/13 08:01:53;;;;;;;4.72;3.38;;;;;;;2.07;100.00;98759.69;15293288;19;20082;-80
2024/02/13 08:07:18;;;;;;;7.55;3.40;;;;;;;2.13;100.00;98760.16;15291896;19;20054;-80
2024/02/13 08:12:45;;;;;;;5.03;3.30;;;;;;;2.25;100.00;98757.63;15300231;19;20086;-81
2024/02/13 08:18:12;;;;;;;5.18;3.10;;;;;;;2.40;100.00;98769.94;15296860;19;20082;-83
2024/02/13 08:23:37;;;;;;;6.32;3.20;;;;;;;2.56;100.00;98776.88;15300192;19;20011;-85
2024/02/13 08:34:27;;;;;;;7.13;3.15;;;;;;;2.89;100.00;98781.75;15305086;19;20014;-85
2024/02/13 08:39:54;;;;;;;6.90;3.20;;;;;;;3.05;100.00;98786.91;15298301;19;20122;-85
2024/02/13 08:45:25;;;;;;;5.40;3.13;;;;;;;3.20;100.00;98792.13;15301532;19;20078;-86
2024/02/13 08:50:53;;;;;;;4.85;3.13;;;;;;;3.32;100.00;98790.41;15296698;19;20033;-85
2024/02/13 09:03:13;;;;;;;3.60;2.50;;;;;;;3.69;100.00;98799.38;15302046;19;20010;-86
2024/02/13 09:08:45;;;;;;;3.23;2.10;;;;;;;3.90;100.00;98805.94;15354357;19;20021;-85
2024/02/13 09:14:11;;;;;;;5.15;2.50;;;;;;;4.06;100.00;98805.72;15300919;19;20271;-85
2024/02/13 09:31:41;;;;;;;6.20;2.78;;;;;;;4.36;100.00;98807.09;15286453;19;20033;-82
2024/02/13 09:37:14;;;;;;;4.28;2.78;;;;;;;4.46;100.00;98802.78;15301732;19;20023;-83
2024/02/13 09:42:40;;;;;;;4.15;3.15;;;;;;;4.56;100.00;98810.97;15304964;19;20018;-83
2024/02/13 09:48:11;;;;;;;5.00;2.63;;;;;;;4.68;100.00;98811.88;15305244;19;20428;-85
2024/02/13 09:53:40;;;;;;;3.85;2.40;;;;;;;4.80;100.00;98812.78;15315327;19;20014;-83
2024/02/13 09:59:11;;;;;;;3.65;2.47;;;;;;;4.96;100.00;98810.66;15314860;19;20014;-82
2024/02/13 10:04:39;;;;;;;2.92;2.40;;;;;;;5.07;100.00;98805.34;15308319;19;20078;-84
2024/02/13 10:10:04;;;;;;;3.13;2.40;;;;;;;5.19;100.00;98803.56;15287236;19;20022;-81
2024/02/13 10:15:39;;;;;;;6.65;2.90;;;;;;;5.34;100.00;98790.00;15301057;19;20018;-82
2024/02/13 10:21:08;;;;;;;4.53;2.60;;;;;;;5.43;100.00;98775.94;15294395;19;20015;-83
2024/02/13 10:26:34;;;;;;;4.70;2.30;;;;;;;5.55;100.00;98768.75;15293585;19;20478;-82
2024/02/13 10:31:58;;;;;;;3.75;2.42;;;;;;;5.69;100.00;98775.72;15291231;19;20025;-81
2024/02/13 10:37:29;;;;;;;2.97;1.70;;;;;;;5.85;100.00;98768.16;15291036;19;20028;-83
2024/02/13 10:42:54;;;;;;;2.70;1.90;;;;;;;5.97;100.00;98762.78;15294456;19;20018;-80
2024/02/13 10:48:27;;;;;;;3.50;2.17;;;;;;;6.09;100.00;98743.09;15288188;19;20478;-83
2024/02/13 10:53:56;;;;;;;3.08;2.08;;;;;;;6.27;100.00;98739.91;15296312;19;20021;-82
2024/02/13 10:59:26;;;;;;;2.72;1.55;;;;;;;6.38;100.00;98734.53;15305338;19;20375;-83
2024/02/13 11:04:52;;;;;;;4.40;1.60;;;;;;;6.48;100.00;98730.09;15310844;19;20018;-82
2024/02/13 11:10:20;;;;;;;5.00;1.77;;;;;;;6.63;100.00;98716.44;15293589;19;20423;-84
2024/02/13 11:15:45;;;;;;;2.15;1.45;;;;;;;6.75;100.00;98709.19;15292301;19;20349;-82
2024/02/13 11:21:10;;;;;;;3.13;1.60;;;;;;;6.93;100.00;98696.06;15305725;19;20011;-81
2024/02/13 11:26:43;;;;;;;4.18;1.27;;;;;;;7.14;100.00;98673.75;15309572;19;20022;-84
2024/02/13 11:32:10;;;;;;;2.72;1.38;;;;;;;7.20;100.00;98675.91;15308505;19;20022;-80
2024/02/13 11:37:36;;;;;;;1.35;1.00;;;;;;;7.32;100.00;98669.47;15306438;19;20528;-79
2024/02/13 11:43:05;;;;;;;3.90;1.20;;;;;;;7.48;100.00;98649.34;15312220;19;20018;-83
2024/02/13 11:48:31;;;;;;;2.75;0.90;;;;;;;7.54;100.00;98644.28;15305803;19;20014;-84
2024/02/13 11:53:56;;;;;;;1.65;0.90;;;;;;;7.59;100.00;98649.22;15310513;19;20508;-82
2024/02/13 11:59:23;;;;;;;3.10;0.77;;;;;;;7.69;100.00;98643.91;15309252;19;20473;-83
2024/02/13 12:04:48;;;;;;;2.08;0.70;;;;;;;7.74;100.00;98633.63;15313767;19;20021;-81
2024/02/13 12:10:17;;;;;;;1.73;0.60;;;;;;;7.79;100.00;98623.31;15336128;19;20019;-80
2024/02/13 12:15:46;;;;;;;2.28;0.73;;;;;;;7.85;100.00;98627.28;15330559;19;20487;-82
2024/02/13 12:21:10;;;;;;;2.60;0.80;;;;;;;8.02;100.00;98623.06;15296516;19;20410;-81
2024/02/13 12:26:37;;;;;;;2.35;0.90;;;;;;;8.22;100.00;98597.06;15297450;19;20010;-82
2024/02/13 12:32:06;;;;;;;1.95;0.70;;;;;;;8.22;100.00;98590.88;15304282;19;20099;-80
2024/02/13 12:37:33;;;;;;;1.35;0.75;;;;;;;8.42;100.00;98599.75;15299201;19;20006;-82
2024/02/13 12:42:57;;;;;;;0.75;0.60;;;;;;;8.41;100.00;98590.84;15306184;19;20024;-80
2024/02/13 12:48:27;;;;;;;1.80;0.73;;;;;;;8.29;100.00;98592.00;15297077;19;20036;-80
2024/02/13 12:53:56;;;;;;;1.33;0.75;;;;;;;8.33;100.00;98588.88;15301947;19;20070;-82
2024/02/13 12:59:22;;;;;;;1.17;0.60;;;;;;;8.40;100.00;98582.94;15298928;19;20023;-81
2024/02/13 13:04:52;;;;;;;1.55;0.70;;;;;;;8.39;100.00;98579.41;15306603;19;20029;-82
2024/02/13 13:10:19;;;;;;;2.08;0.93;;;;;;;8.31;100.00;98585.47;15298052;19;20091;-82
2024/02/13 13:15:46;;;;;;;1.70;0.80;;;;;;;8.16;100.00;98593.13;15298597;19;20082;-82
2024/02/13 13:21:14;;;;;;;1.77;1.00;;;;;;;8.15;100.00;98590.59;15297827;19;20010;-80
2024/02/13 13:26:41;;;;;;;1.75;0.88;;;;;;;8.12;100.00;98588.19;15299034;19;20022;-81
2024/02/13 13:32:15;;;;;;;1.77;0.90;;;;;;;8.04;100.00;98585.38;15290488;19;20500;-80
2024/02/13 13:37:43;;;;;;;1.30;0.70;;;;;;;8.03;100.00;98592.56;15296995;19;20481;-82
2024/02/13 13:43:08;;;;;;;1.70;0.80;;;;;;;7.99;100.00;98596.53;15305642;19;20050;-81
2024/02/13 13:48:34;;;;;;;1.88;0.93;;;;;;;8.04;100.00;98604.16;15299673;19;20027;-83
2024/02/13 13:54:01;;;;;;;2.35;0.80;;;;;;;7.93;100.00;98591.72;15302560;19;20090;-82
2024/02/13 13:59:26;;;;;;;1.55;0.80;;;;;;;7.93;100.00;98587.22;15300569;19;20031;-79
2024/02/13 14:04:52;;;;;;;0.90;0.73;;;;;;;8.04;100.00;98604.16;15297636;19;20038;-80
2024/02/13 14:10:20;;;;;;;1.90;0.80;;;;;;;8.07;100.00;98602.03;15292352;19;20371;-82
2024/02/13 14:15:45;;;;;;;1.67;0.80;;;;;;;7.93;100.00;98597.94;15294812;19;20073;-82
2024/02/13 14:21:10;;;;;;;2.13;0.80;;;;;;;8.10;100.00;98603.56;15293739;19;20041;-81
2024/02/13 14:26:37;;;;;;;2.58;0.80;;;;;;;7.95;100.00;98609.34;15295131;19;20019;-82
2024/02/13 14:32:03;;;;;;;1.58;0.85;;;;;;;7.59;100.00;98600.13;15294826;19;20025;-82
2024/02/13 14:37:28;;;;;;;2.88;0.90;;;;;;;7.43;100.00;98600.66;15293138;19;20086;-82
2024/02/13 14:42:56;;;;;;;1.42;0.90;;;;;;;7.33;100.00;98605.97;15300820;19;20025;-82
2024/02/13 14:48:21;;;;;;;3.20;1.13;;;;;;;7.39;100.00;98614.34;15291216;19;20085;-82
2024/02/13 14:53:48;;;;;;;2.42;1.00;;;;;;;7.62;100.00;98614.09;15313171;19;20070;-82
2024/02/13 14:59:15;;;;;;;1.33;0.90;;;;;;;7.54;100.00;98619.31;15332634;19;20022;-82
2024/02/13 15:04:40;;;;;;;2.38;1.00;;;;;;;7.32;100.00;98610.50;15309151;19;20762;-84
2024/02/13 15:10:07;;;;;;;2.53;0.85;;;;;;;7.07;100.00;98633.22;15306441;19;20368;-82
2024/02/13 15:15:36;;;;;;;1.60;0.95;;;;;;;6.86;100.00;98636.81;15315868;19;20343;-82
2024/02/13 15:21:29;;;;;;;2.95;0.93;;;;;;;6.75;100.00;98632.38;15315932;19;20035;-83
2024/02/13 15:26:54;;;;;;;1.80;1.00;;;;;;;6.71;100.00;98633.63;15346918;19;20010;-81
2024/02/13 15:32:22;;;;;;;2.60;0.95;;;;;;;6.61;100.00;98633.53;15303110;19;20038;-81
2024/02/13 15:49:05;;;;;;;1.52;1.00;;;;;;;6.28;100.00;98650.66;15300372;19;20096;-80
2024/02/13 15:54:30;;;;;;;2.40;0.95;;;;;;;6.22;100.00;98648.47;15320703;19;20019;-83
2024/02/13 15:59:56;;;;;;;3.15;1.10;;;;;;;6.11;100.00;98644.03;15300398;19;20022;-82
2024/02/13 16:05:28;;;;;;;2.22;1.20;;;;;;;5.94;100.00;98656.09;15311238;19;20015;-82
2024/02/13 16:10:55;;;;;;;3.05;1.50;;;;;;;5.74;100.00;98665.72;15305759;19;20014;-82
2024/02/13 16:16:19;;;;;;;1.88;1.33;;;;;;;5.59;100.00;98663.31;15309127;19;20019;-79
2024/02/13 16:21:47;;;;;;;3.13;1.33;;;;;;;5.41;100.00;98671.00;15314343;19;20086;-79
2024/02/13 16:27:13;;;;;;;2.88;1.25;;;;;;;5.28;100.00;98673.78;15307152;19;20398;-79
2024/02/13 16:32:39;;;;;;;3.13;1.60;;;;;;;5.15;100.00;98679.25;15310986;19;20026;-82
2024/02/13 16:38:07;;;;;;;3.50;1.40;;;;;;;5.03;100.00;98674.84;15306354;19;20007;-82
2024/02/13 16:43:32;;;;;;;2.33;1.40;;;;;;;4.88;100.00;98693.75;15305571;19;20018;-82
2024/02/13 16:48:57;;;;;;;2.63;1.50;;;;;;;4.80;100.00;98703.34;15311406;19;20044;-82
2024/02/13 16:54:25;;;;;;;2.22;1.20;;;;;;;4.68;100.00;98713.13;15318831;19;20017;-80
2024/02/13 16:59:52;;;;;;;1.98;1.10;;;;;;;4.55;100.00;98708.72;15319072;19;20022;-80
2024/02/13 17:05:19;;;;;;;3.67;1.70;;;;;;;4.46;100.00;98725.44;15319665;19;20033;-83
2024/02/13 17:10:46;;;;;;;3.22;1.80;;;;;;;4.35;100.00;98728.03;15314447;19;20082;-82
2024/02/13 17:16:11;;;;;;;4.85;2.47;;;;;;;4.20;100.00;98733.53;15318257;19;20058;-82
2024/02/13 17:21:35;;;;;;;3.42;2.10;;;;;;;4.09;100.00;98736.16;15314278;19;20041;-83
2024/02/13 17:27:03;;;;;;;4.10;1.67;;;;;;;3.98;100.00;98728.94;15315998;19;20019;-82
2024/02/13 17:32:29;;;;;;;4.78;1.85;;;;;;;3.88;100.00;98731.44;15304898;19;20599;-83
2024/02/13 17:37:57;;;;;;;2.45;1.42;;;;;;;3.78;100.00;98738.38;15308934;19;20097;-82
2024/02/13 17:43:27;;;;;;;2.15;1.38;;;;;;;3.72;100.00;98744.13;15302317;19;20375;-82
2024/02/13 17:48:52;;;;;;;2.42;1.60;;;;;;;3.64;100.00;98753.53;15311736;19;20017;-82
2024/02/13 17:54:28;;;;;;;3.00;1.52;;;;;;;3.57;100.00;98752.28;15313131;19;20018;-83
2024/02/13 17:59:56;;;;;;;2.20;1.48;;;;;;;3.47;100.00;98754.75;15291587;19;20021;-83
2024/02/13 18:05:23;;;;;;;3.03;1.67;;;;;;;3.43;100.00;98757.72;15293727;19;20010;-84
2024/02/13 18:10:49;;;;;;;3.42;1.55;;;;;;;3.36;100.00;98755.47;15298587;19;20268;-83
2024/02/13 18:16:16;;;;;;;1.95;1.40;;;;;;;3.33;100.00;98758.38;15301227;19;20366;-83
2024/02/13 18:21:41;;;;;;;2.67;1.40;;;;;;;3.24;100.00;98759.00;15304407;19;20020;-84
2024/02/13 18:27:06;;;;;;;1.95;1.40;;;;;;;3.19;100.00;98761.13;15296759;19;20011;-79
2024/02/13 18:32:34;;;;;;;3.65;1.60;;;;;;;3.17;100.00;98776.38;15336627;19;20033;-80
2024/02/13 18:37:58;;;;;;;2.85;1.67;;;;;;;3.15;100.00;98773.81;15293310;19;20019;-80
2024/02/13 18:43:25;;;;;;;3.20;1.83;;;;;;;3.08;100.00;98773.38;15291959;19;20520;-80
2024/02/13 18:48:52;;;;;;;5.07;1.90;;;;;;;3.04;100.00;98763.88;15284157;19;20003;-79
2024/02/13 18:54:17;;;;;;;2.30;1.63;;;;;;;3.04;100.00;98760.38;15290495;19;20013;-79
2024/02/13 18:59:43;;;;;;;4.25;2.00;;;;;;;3.02;100.00;98770.28;15289646;19;20018;-80
2024/02/13 19:05:11;;;;;;;4.25;1.80;;;;;;;2.97;100.00;98781.25;15285405;19;20027;-80
2024/02/13 19:10:35;;;;;;;3.13;1.75;;;;;;;2.91;100.00;98786.97;15288831;19;20018;-79
2024/02/13 19:16:00;;;;;;;3.53;1.80;;;;;;;2.80;100.00;98786.84;15287872;19;20014;-79
2024/02/13 19:21:28;;;;;;;4.78;2.30;;;;;;;2.74;100.00;98788.09;15290473;19;20014;-79
2024/02/13 19:26:52;;;;;;;2.55;1.83;;;;;;;2.73;100.00;98789.94;15278033;19;20014;-80
2024/02/13 19:32:16;;;;;;;4.88;2.50;;;;;;;2.70;100.00;98795.44;15291542;19;20615;-82
2024/02/13 19:37:44;;;;;;;5.28;2.70;;;;;;;2.68;100.00;98797.34;15296598;19;20090;-81
2024/02/13 19:43:08;;;;;;;6.25;2.30;;;;;;;2.68;100.00;98792.03;15311006;19;20074;-78
2024/02/13 19:48:40;;;;;;;3.83;2.30;;;;;;;2.67;100.00;98797.47;15309745;19;20536;-78
2024/02/13 19:54:11;;;;;;;4.38;2.20;;;;;;;2.64;100.00;98803.84;15303947;19;20011;-81
2024/02/13 19:59:37;;;;;;;5.25;2.80;;;;;;;2.62;100.00;98813.72;15298772;19;20422;-80
2024/02/13 20:05:02;;;;;;;3.85;2.28;;;;;;;2.59;100.00;98809.44;15305979;19;20078;-80
2024/02/13 20:10:30;;;;;;;4.95;2.58;;;;;;;2.56;100.00;98806.13;15309426;19;20007;-79
2024/02/13 20:15:54;;;;;;;4.82;2.55;;;;;;;2.51;100.00;98810.94;15312697;19;20077;-81
2024/02/13 20:21:19;;;;;;;3.00;2.13;;;;;;;2.47;100.00;98802.28;15315612;19;20022;-79
2024/02/13 20:26:48;;;;;;;3.85;2.15;;;;;;;2.45;100.00;98802.38;15326683;19;20022;-80
2024/02/13 20:32:19;;;;;;;4.50;2.38;;;;;;;2.43;100.00;98812.25;15324803;19;20042;-79
2024/02/13 20:37:44;;;;;;;5.13;2.30;;;;;;;2.44;100.00;98816.63;15310358;19;20010;-80
2024/02/13 20:43:14;;;;;;;4.45;2.00;;;;;;;2.46;100.00;98801.44;15320229;19;20015;-80
2024/02/13 20:48:41;;;;;;;4.50;2.28;;;;;;;2.43;100.00;98814.09;15314183;19;20335;-80
2024/02/13 20:54:06;;;;;;;5.30;2.50;;;;;;;2.35;100.00;98803.94;15318447;19;20028;-80
2024/02/13 20:59:34;;;;;;;4.10;2.30;;;;;;;2.33;100.00;98808.50;15314318;19;20026;-79
2024/02/13 21:05:01;;;;;;;4.22;2.00;;;;;;;2.32;100.00;98809.44;15307184;19;20017;-82
2024/02/13 21:10:32;;;;;;;4.60;2.45;;;;;;;2.37;100.00;98814.47;15303682;19;20015;-77
2024/02/13 21:15:59;;;;;;;2.58;2.25;;;;;;;2.45;100.00;98821.00;15304711;19;20024;-77
2024/02/13 21:27:03;;;;;;;4.57;2.30;;;;;;;2.54;100.00;98821.34;15337832;19;20018;-79
2024/02/13 21:32:37;;;;;;;4.32;2.33;;;;;;;2.55;100.00;98823.06;15304931;19;20028;-79
2024/02/13 21:38:04;;;;;;;4.25;2.50;;;;;;;2.56;100.00;98830.06;15290042;19;20010;-79
2024/02/13 21:43:31;;;;;;;3.13;1.90;;;;;;;2.60;100.00;98823.63;15295848;19;20015;-79
2024/02/13 21:48:58;;;;;;;3.78;1.80;;;;;;;2.65;100.00;98816.16;15285958;19;20019;-78
2024/02/13 21:54:23;;;;;;;3.13;1.90;;;;;;;2.73;100.00;98815.66;15288842;19;20018;-79
2024/02/13 21:59:47;;;;;;;3.20;1.90;;;;;;;2.78;100.00;98813.56;15282809;19;20022;-79
2024/02/13 22:05:17;;;;;;;4.43;1.80;;;;;;;2.83;100.00;98811.44;15290860;19;20011;-79
2024/02/13 22:10:42;;;;;;;3.83;1.88;;;;;;;2.85;100.00;98814.84;15288908;19;20027;-79
2024/02/13 22:16:09;;;;;;;2.60;1.88;;;;;;;2.88;100.00;98816.47;15297487;19;20014;-78
2024/02/13 22:21:37;;;;;;;3.08;1.73;;;;;;;2.91;100.00;98811.78;15285241;19;20035;-78
2024/02/13 22:27:02;;;;;;;4.13;1.80;;;;;;;2.94;100.00;98802.75;15282260;19;20022;-78
2024/02/13 22:32:26;;;;;;;2.55;1.85;;;;;;;2.98;100.00;98792.72;15282747;19;20477;-78
2024/02/13 22:37:53;;;;;;;2.97;1.60;;;;;;;3.03;100.00;98801.28;15293570;19;20049;-78
2024/02/13 22:43:20;;;;;;;5.20;1.77;;;;;;;3.07;100.00;98802.75;15290375;19;20410;-78
2024/02/13 22:48:45;;;;;;;2.25;1.40;;;;;;;3.12;100.00;98803.31;15282235;19;20513;-78
2024/02/13 22:54:12;;;;;;;3.13;1.50;;;;;;;3.15;100.00;98802.22;15290913;19;20031;-79
2024/02/13 22:59:37;;;;;;;3.78;1.77;;;;;;;3.16;100.00;98807.47;15290200;19;20034;-78
2024/02/13 23:05:01;;;;;;;1.98;1.40;;;;;;;3.21;100.00;98800.00;15287577;19;20007;-78
2024/02/13 23:10:29;;;;;;;2.63;1.65;;;;;;;3.29;100.00;98801.31;15281283;19;20011;-78
2024/02/13 23:15:54;;;;;;;3.00;1.60;;;;;;;3.36;100.00;98807.91;15304336;19;20017;-78
2024/02/13 23:21:26;;;;;;;2.15;1.33;;;;;;;3.42;100.00;98801.31;15295858;19;20026;-48
2024/02/13 23:26:54;;;;;;;1.88;1.48;;;;;;;3.43;100.00;98795.84;15300758;19;20014;-50
2024/02/13 23:32:19;;;;;;;3.08;1.60;;;;;;;3.50;100.00;98790.94;15294330;19;20503;-49
2024/02/13 23:37:44;;;;;;;5.82;1.50;;;;;;;3.53;100.00;98793.41;15301859;19;20335;-49
2024/02/13 23:43:13;;;;;;;1.83;1.30;;;;;;;3.59;100.00;98802.78;15295290;19;20478;-50
2024/02/13 23:48:39;;;;;;;3.10;1.60;;;;;;;3.61;100.00;98787.56;15300855;19;20021;-48
2024/02/13 23:54:04;;;;;;;3.45;1.48;;;;;;;3.67;100.00;98798.63;15298421;19;20478;-50
2024/02/13 23:59:31;;;;;;;5.15;1.33;;;;;;;3.72;100.00;98781.44;15041924;19;5001192;-51
